Time;durP1;ratioP1;P1;durP2;ratioP2;P2;SDS_P1;SDS_P2;PMS_P1;PMS_P2;Temp;Humidity;BMP_temperature;BMP_pressure;BME280_temperature;BME280_humidity;BME280_pressure;Samples;Min_cycle;Max_cycle;Signal;HPM_P1;HPM_P2
2023/12/06 00:01:09;;;;;;;23.47;16.30;;;4.40;97.30;;;6.24;71.78;100665.91;3082505;46;20478;-67
2023/12/06 00:03:38;;;;;;;24.50;18.10;;;4.40;97.20;;;6.23;71.70;100661.66;3082243;46;20541;-66
2023/12/06 00:06:07;;;;;;;26.80;18.23;;;4.40;97.10;;;6.23;71.96;100656.44;3082364;46;20460;-66
2023/12/06 00:08:35;;;;;;;24.67;16.67;;;4.40;97.40;;;6.23;71.98;100662.44;3082770;46;20466;-67
2023/12/06 00:11:04;;;;;;;23.73;17.20;;;4.40;97.40;;;6.22;72.15;100655.59;3082397;46;20435;-66
2023/12/06 00:13:32;;;;;;;24.37;16.50;;;4.40;97.40;;;6.22;72.00;100660.81;3081779;46;20522;-67
2023/12/06 00:16:01;;;;;;;24.97;16.20;;;4.40;97.40;;;6.22;72.08;100660.81;3082229;46;20426;-66
2023/12/06 00:18:29;;;;;;;24.40;16.67;;;4.40;97.40;;;6.22;72.15;100655.59;3082441;46;20534;-66
2023/12/06 00:20:58;;;;;;;26.40;16.67;;;4.40;97.50;;;6.25;72.17;100662.31;3082188;46;20459;-66
2023/12/06 00:23:26;;;;;;;26.03;18.67;;;4.40;97.40;;;6.26;72.28;100667.41;3081885;46;20508;-66
2023/12/06 00:25:55;;;;;;;26.60;18.13;;;4.40;97.40;;;6.28;72.31;100660.22;3082053;46;20434;-66
2023/12/06 00:28:23;;;;;;;26.40;17.43;;;4.40;97.50;;;6.29;72.25;100667.09;3082031;46;20434;-66
2023/12/06 00:30:51;;;;;;;25.57;16.70;;;4.40;97.50;;;6.31;72.13;100662.53;3082033;46;20545;-66
2023/12/06 00:33:20;;;;;;;28.30;18.43;;;4.40;97.40;;;6.32;71.98;100666.81;3080803;46;20463;-66
2023/12/06 00:35:49;;;;;;;27.83;17.80;;;4.50;97.30;;;6.32;71.92;100666.81;3081503;46;20427;-66
2023/12/06 00:38:17;;;;;;;28.17;18.20;;;4.50;97.30;;;6.33;71.83;100672.84;3082332;46;20467;-65
2023/12/06 00:40:45;;;;;;;22.70;15.80;;;4.50;97.30;;;6.32;72.04;100661.59;3081925;46;20528;-67
2023/12/06 00:43:14;;;;;;;24.17;16.90;;;4.50;97.30;;;6.32;72.01;100669.44;3081756;46;20446;-66
2023/12/06 00:45:42;;;;;;;23.57;17.57;;;4.50;97.30;;;6.32;71.83;100673.81;3082009;46;20637;-64
2023/12/06 00:48:11;;;;;;;22.83;17.27;;;4.50;97.20;;;6.30;71.50;100678.38;3081727;46;20451;-66
2023/12/06 00:50:39;;;;;;;24.03;17.20;;;4.50;96.90;;;6.27;71.33;100674.28;3081929;46;20508;-68
2023/12/06 00:53:08;;;;;;;24.97;16.90;;;4.40;96.90;;;6.26;71.74;100683.06;3081628;46;20454;-67
2023/12/06 00:55:36;;;;;;;26.80;17.27;;;4.40;97.20;;;6.28;71.91;100683.75;3082038;46;21287;-66
2023/12/06 00:58:05;;;;;;;24.10;17.07;;;4.50;97.30;;;6.30;72.04;100684.41;3082106;46;20434;-66
2023/12/06 01:00:34;;;;;;;25.13;17.20;;;4.40;97.40;;;6.29;71.97;100690.63;3082024;46;20561;-65
2023/12/06 01:03:02;;;;;;;26.03;17.67;;;4.50;97.40;;;6.31;71.89;100690.47;3081138;46;21089;-66
2023/12/06 01:05:31;;;;;;;29.23;17.33;;;4.50;97.30;;;6.30;71.73;100689.63;3081824;46;20452;-67
2023/12/06 01:07:59;;;;;;;25.37;17.47;;;4.40;97.10;;;6.28;71.53;100686.34;3081815;46;21097;-66
2023/12/06 01:10:28;;;;;;;25.93;17.87;;;4.40;97.00;;;6.26;71.47;100693.53;3082375;46;20434;-67
2023/12/06 01:12:56;;;;;;;23.57;15.53;;;4.50;97.00;;;6.26;71.36;100700.53;3081554;46;20439;-66
2023/12/06 01:15:24;;;;;;;23.10;16.73;;;4.40;97.00;;;6.25;71.37;100701.53;3082037;46;20434;-66
2023/12/06 01:17:53;;;;;;;25.37;17.63;;;4.40;97.00;;;6.23;71.50;100706.88;3081848;46;20508;-67
2023/12/06 01:20:22;;;;;;;24.00;17.00;;;4.40;97.00;;;6.22;71.49;100713.09;3081727;46;20466;-66
2023/12/06 01:22:51;;;;;;;27.17;17.43;;;4.40;97.00;;;6.21;71.53;100710.59;3080627;46;20491;-67
2023/12/06 01:25:19;;;;;;;23.10;17.27;;;4.40;97.10;;;6.22;71.86;100707.03;3081788;46;20487;-65
2023/12/06 01:27:47;;;;;;;24.93;17.23;;;4.40;97.30;;;6.24;71.81;100711.16;3081644;46;20446;-66
2023/12/06 01:30:16;;;;;;;24.87;16.73;;;4.40;97.30;;;6.24;71.60;100716.38;3082103;43;21499;-66
2023/12/06 01:32:44;;;;;;;24.60;16.27;;;4.40;97.10;;;6.24;71.54;100723.38;3081046;46;20434;-66
2023/12/06 01:35:13;;;;;;;22.13;15.80;;;4.40;97.00;;;6.21;71.38;100716.66;3081071;46;20515;-66
2023/12/06 01:37:42;;;;;;;21.53;15.97;;;4.40;96.90;;;6.20;71.39;100730.72;3081687;46;20431;-66
2023/12/06 01:40:11;;;;;;;21.67;15.43;;;4.40;96.80;;;6.14;71.22;100737.31;3081523;46;20438;-67
2023/12/06 01:42:39;;;;;;;23.10;15.90;;;4.30;96.60;;;6.10;71.03;100732.53;3080628;46;20565;-66
2023/12/06 01:45:08;;;;;;;25.30;17.43;;;4.30;96.50;;;6.05;71.17;100734.78;3080192;46;20431;-66
2023/12/06 01:47:38;;;;;;;21.83;15.13;;;4.30;96.70;;;6.01;71.39;100731.59;3081811;46;20560;-66
2023/12/06 01:50:09;;;;;;;21.30;16.10;;;4.20;96.90;;;6.01;71.68;100731.59;3082074;46;20438;-66
2023/12/06 01:52:38;;;;;;;22.33;15.97;;;4.30;97.10;;;6.03;71.81;100739.31;3080905;46;20591;-67
2023/12/06 01:55:07;;;;;;;23.00;16.03;;;4.20;97.20;;;6.02;71.82;100743.72;3081149;46;20434;-66
2023/12/06 01:57:36;;;;;;;21.33;16.00;;;4.20;97.10;;;6.00;71.59;100734.38;3080874;46;20580;-66
2023/12/06 02:00:07;;;;;;;21.53;15.67;;;4.20;97.00;;;6.00;71.76;100737.00;3081435;46;20429;-66
2023/12/06 02:02:35;;;;;;;22.97;16.00;;;4.20;97.20;;;6.01;71.90;100730.81;3080840;46;20434;-66
2023/12/06 02:05:04;;;;;;;21.17;15.77;;;4.20;97.30;;;6.01;72.02;100738.66;3081372;46;20492;-66
2023/12/06 02:07:34;;;;;;;21.50;15.00;;;4.20;97.30;;;6.01;71.90;100736.03;3081334;46;20434;-66
2023/12/06 02:10:03;;;;;;;20.53;15.13;;;4.20;97.20;;;6.00;71.66;100737.00;3081480;46;20480;-66
2023/12/06 02:12:31;;;;;;;20.97;15.20;;;4.20;97.00;;;5.97;71.59;100740.72;3080568;46;20548;-66
2023/12/06 02:15:01;;;;;;;24.67;16.23;;;4.20;96.90;;;5.93;71.68;100733.31;3080896;46;20539;-66
2023/12/06 02:17:33;;;;;;;22.53;16.13;;;4.20;96.90;;;5.87;71.42;100734.69;3080596;46;20522;-65
2023/12/06 02:20:04;;;;;;;25.63;17.43;;;4.10;96.80;;;5.84;71.77;100728.94;3080689;46;20462;-66
2023/12/06 02:22:32;;;;;;;21.70;16.03;;;4.10;97.00;;;5.86;71.98;100732.25;3079869;46;20463;-68
2023/12/06 02:25:04;;;;;;;21.23;15.27;;;4.10;97.10;;;5.85;72.14;100731.41;3080148;46;20457;-63
2023/12/06 02:27:32;;;;;;;22.57;15.93;;;4.10;97.30;;;5.87;72.09;100739.94;3080959;46;20466;-62
2023/12/06 02:30:00;;;;;;;21.30;15.07;;;4.10;97.30;;;5.88;72.07;100740.75;3081196;46;20527;-66
2023/12/06 02:32:29;;;;;;;22.27;15.40;;;4.10;97.20;;;5.86;71.93;100740.09;3080212;46;20499;-66
2023/12/06 02:35:00;;;;;;;20.20;14.87;;;4.10;97.10;;;5.84;71.95;100740.25;3080498;46;20443;-65
2023/12/06 02:37:30;;;;;;;23.43;16.47;;;4.10;97.30;;;5.86;72.41;100740.91;3081128;46;20439;-67
2023/12/06 02:40:01;;;;;;;23.10;15.97;;;4.10;97.50;;;5.88;72.25;100740.75;3080609;46;20519;-66
2023/12/06 02:42:30;;;;;;;24.73;17.13;;;4.10;97.40;;;5.87;72.08;100744.34;3079530;46;20435;-66
2023/12/06 02:44:58;;;;;;;29.30;19.53;;;4.10;97.50;;;5.83;71.88;100741.16;3081079;46;20563;-66
2023/12/06 02:47:27;;;;;;;21.50;15.70;;;4.10;97.10;;;5.81;71.93;100744.88;3080051;46;20568;-67
2023/12/06 02:49:55;;;;;;;24.83;16.33;;;4.00;97.20;;;5.83;72.36;100737.72;3080273;46;20430;-64
2023/12/06 02:52:23;;;;;;;21.87;15.87;;;4.10;97.80;;;5.86;72.50;100745.31;3080128;46;20496;-66
2023/12/06 02:54:52;;;;;;;24.30;16.83;;;4.10;97.50;;;5.87;72.15;100745.16;3080555;46;20449;-64
2023/12/06 02:57:21;;;;;;;26.97;16.90;;;4.10;97.50;;;5.90;72.31;100751.88;3082655;46;20438;-66
2023/12/06 02:59:50;;;;;;;22.50;15.40;;;4.10;97.30;;;5.88;72.01;100745.97;3083440;46;20984;-66
2023/12/06 03:02:18;;;;;;;22.50;16.17;;;4.10;97.20;;;5.88;72.21;100746.81;3082815;46;20447;-66
2023/12/06 03:04:46;;;;;;;25.47;17.53;;;4.10;97.40;;;5.89;72.07;100745.03;3082915;46;20594;-66
2023/12/06 03:07:15;;;;;;;21.23;15.30;;;4.10;97.20;;;5.86;71.95;100742.69;3083179;46;20433;-66
2023/12/06 03:09:45;;;;;;;23.50;16.97;;;4.10;97.10;;;5.84;71.92;100744.59;3083173;46;20446;-66
2023/12/06 03:12:14;;;;;;;23.17;15.73;;;4.10;97.00;;;5.82;72.08;100747.38;3082880;46;20502;-66
2023/12/06 03:14:42;;;;;;;24.77;17.07;;;4.00;97.20;;;5.85;72.38;100741.03;3082723;46;21049;-66
2023/12/06 03:17:10;;;;;;;25.07;16.50;;;4.10;97.40;;;5.88;72.33;100751.19;3083254;46;20579;-66
2023/12/06 03:19:39;;;;;;;25.23;17.37;;;4.10;97.50;;;5.88;72.31;100746.81;3083089;46;20454;-66
2023/12/06 03:22:07;;;;;;;22.50;15.90;;;4.10;97.50;;;5.89;72.23;100750.25;3082753;46;20441;-65
2023/12/06 03:24:36;;;;;;;23.43;16.43;;;4.10;97.40;;;5.89;71.90;100752.88;3082240;46;20582;-65
2023/12/06 03:27:04;;;;;;;24.50;16.40;;;4.10;97.20;;;5.87;71.80;100745.16;3082661;46;20596;-63
2023/12/06 03:29:32;;;;;;;25.77;17.03;;;4.10;97.20;;;5.85;71.68;100751.47;3083299;46;20982;-66
2023/12/06 03:32:01;;;;;;;24.93;17.20;;;4.00;97.00;;;5.82;71.96;100756.97;3082542;46;20570;-64
2023/12/06 03:34:29;;;;;;;27.17;16.97;;;4.00;97.10;;;5.81;71.99;100755.31;3082182;46;20457;-67
2023/12/06 03:36:58;;;;;;;25.50;17.00;;;4.00;97.10;;;5.77;71.91;100759.19;3083041;46;20536;-66
2023/12/06 03:39:27;;;;;;;25.60;17.20;;;4.00;97.10;;;5.76;72.26;100762.75;3083023;46;20512;-68
2023/12/06 03:41:55;;;;;;;27.67;18.40;;;4.00;97.20;;;5.76;72.09;100765.38;3082065;46;20494;-66
2023/12/06 03:44:23;;;;;;;27.13;18.37;;;4.00;97.30;;;5.77;72.08;100769.63;3082399;46;20466;-67
2023/12/06 03:46:52;;;;;;;25.20;17.37;;;4.00;97.30;;;5.76;72.20;100767.97;3082588;46;20448;-66
2023/12/06 03:49:20;;;;;;;28.13;18.00;;;3.90;97.30;;;5.76;72.29;100763.59;3082915;46;20563;-66
2023/12/06 03:51:49;;;;;;;26.67;18.00;;;3.90;97.30;;;5.78;72.14;100772.09;3082032;46;20475;-64
2023/12/06 03:54:18;;;;;;;27.23;18.20;;;4.00;97.40;;;5.78;72.11;100776.50;3082454;46;20570;-66
2023/12/06 03:56:46;;;;;;;24.40;17.03;;;4.00;97.40;;;5.76;72.22;100773.19;3082576;46;20531;-66
2023/12/06 03:59:15;;;;;;;27.53;18.33;;;4.00;97.40;;;5.76;72.29;100774.03;3082074;46;20502;-66
2023/12/06 04:01:44;;;;;;;30.37;19.87;;;3.90;97.30;;;5.73;72.14;100774.31;3081974;46;21031;-66
2023/12/06 04:04:14;;;;;;;31.60;19.67;;;3.90;97.20;;;5.70;72.02;100779.00;3082224;46;20438;-66
2023/12/06 04:06:43;;;;;;;32.77;19.43;;;3.90;97.10;;;5.67;72.21;100779.28;3082389;46;20427;-64
2023/12/06 04:09:11;;;;;;;29.67;18.63;;;3.90;97.10;;;5.66;72.44;100777.66;3082579;46;21031;-66
2023/12/06 04:11:40;;;;;;;29.53;18.27;;;3.90;97.50;;;5.67;72.59;100780.13;3081969;46;20548;-66
2023/12/06 04:14:08;;;;;;;24.60;16.87;;;3.90;97.40;;;5.66;72.28;100772.44;3082090;46;20466;-66
2023/12/06 04:16:37;;;;;;;27.47;17.87;;;3.90;97.20;;;5.65;72.32;100776.00;3082493;46;20465;-66
2023/12/06 04:19:05;;;;;;;27.47;17.30;;;3.90;97.30;;;5.66;72.36;100777.66;3082552;46;20434;-66
2023/12/06 04:21:34;;;;;;;27.43;17.47;;;3.80;97.30;;;5.67;72.49;100776.69;3082194;46;21001;-68
2023/12/06 04:24:03;;;;;;;24.30;16.70;;;3.90;97.40;;;5.69;72.44;100772.13;3081603;46;20998;-66
2023/12/06 04:26:31;;;;;;;25.27;17.30;;;3.80;97.50;;;5.71;72.26;100775.41;3081897;46;20467;-66
2023/12/06 04:29:00;;;;;;;25.30;16.13;;;3.90;97.50;;;5.73;72.44;100783.97;3082236;46;20587;-65
2023/12/06 04:31:28;;;;;;;23.33;16.93;;;3.90;97.70;;;5.75;72.65;100787.25;3082608;46;20459;-65
2023/12/06 04:33:57;;;;;;;24.00;15.47;;;3.90;97.60;;;5.76;72.29;100794.09;3081147;46;20438;-68
2023/12/06 04:36:25;;;;;;;25.67;17.30;;;3.90;97.50;;;5.76;72.20;100788.88;3082344;46;20434;-66
2023/12/06 04:38:54;;;;;;;23.70;16.47;;;3.90;97.50;;;5.77;72.39;100795.75;3082186;46;20514;-66
2023/12/06 04:41:22;;;;;;;22.70;15.23;;;3.90;97.40;;;5.76;72.00;100794.09;3082418;46;20468;-65
2023/12/06 04:43:51;;;;;;;21.77;14.87;;;3.90;97.20;;;5.72;72.12;100787.50;3081086;46;20435;-67
2023/12/06 04:46:20;;;;;;;22.77;15.53;;;3.90;97.00;;;5.68;72.08;100786.97;3082248;46;20496;-66
2023/12/06 04:48:48;;;;;;;24.37;16.10;;;3.90;97.10;;;5.68;72.10;100789.56;3082134;46;20432;-66
2023/12/06 04:51:17;;;;;;;25.83;16.27;;;3.90;97.10;;;5.66;71.98;100788.09;3082274;46;20473;-64
2023/12/06 04:53:45;;;;;;;22.07;15.50;;;3.90;97.10;;;5.66;72.31;100793.31;3080952;46;20469;-66
2023/12/06 04:56:14;;;;;;;23.97;16.20;;;3.80;97.30;;;5.67;72.47;100794.94;3082138;46;20431;-64
2023/12/06 04:58:42;;;;;;;23.97;15.80;;;3.80;97.40;;;5.69;72.41;100796.44;3082101;46;20590;-66
2023/12/06 05:01:11;;;;;;;23.60;16.47;;;3.80;97.40;;;5.70;72.18;100797.28;3082296;46;20442;-65
2023/12/06 05:03:40;;;;;;;25.70;16.97;;;3.80;97.40;;;5.71;72.21;100802.34;3081088;46;20534;-66
2023/12/06 05:06:08;;;;;;;20.80;15.00;;;3.80;97.30;;;5.72;72.27;100805.78;3081452;46;20496;-66
2023/12/06 05:08:36;;;;;;;21.60;14.90;;;3.90;97.30;;;5.70;71.89;100805.94;3081534;46;20573;-66
2023/12/06 05:11:05;;;;;;;21.60;14.43;;;3.90;97.10;;;5.68;72.00;100813.06;3081977;46;20428;-66
2023/12/06 05:13:33;;;;;;;20.03;13.73;;;3.80;97.20;;;5.68;72.35;100817.50;3081295;46;20536;-67
2023/12/06 05:16:03;;;;;;;21.63;14.23;;;3.80;97.20;;;5.67;72.21;100816.66;3081625;46;20438;-66
2023/12/06 05:18:32;;;;;;;19.07;14.10;;;3.80;97.30;;;5.68;72.42;100822.72;3081636;46;20438;-68
2023/12/06 05:21:00;;;;;;;20.27;13.87;;;3.80;97.30;;;5.66;72.06;100819.44;3080889;46;20428;-65
2023/12/06 05:23:28;;;;;;;18.47;12.87;;;3.80;97.20;;;5.64;71.84;100826.56;3081271;46;20446;-65
2023/12/06 05:25:57;;;;;;;21.73;13.57;;;3.80;97.20;;;5.64;72.01;100821.31;3081222;46;20428;-66
2023/12/06 05:28:25;;;;;;;24.77;15.40;;;3.80;97.20;;;5.63;72.21;100824.91;3081487;46;20434;-65
2023/12/06 05:30:53;;;;;;;19.73;13.47;;;3.80;97.40;;;5.64;72.34;100831.78;3081874;46;20434;-66
2023/12/06 05:33:22;;;;;;;20.70;15.07;;;3.80;97.40;;;5.66;72.37;100832.47;3081195;46;21058;-66
2023/12/06 05:35:50;;;;;;;19.97;14.77;;;3.80;97.50;;;5.67;72.60;100832.31;3080918;46;20528;-67
2023/12/06 05:38:19;;;;;;;24.97;16.43;;;3.80;97.50;;;5.67;72.51;100831.50;3081744;46;20438;-66
2023/12/06 05:40:49;;;;;;;22.23;15.07;;;3.80;97.40;;;5.64;72.15;100840.44;3081576;46;20423;-66
2023/12/06 05:43:17;;;;;;;22.60;16.00;;;3.80;97.10;;;5.62;72.27;100844.16;3081234;46;21008;-67
2023/12/06 05:45:46;;;;;;;23.97;15.10;;;3.80;97.10;;;5.56;71.97;100844.72;3079772;46;21036;-64
2023/12/06 05:48:14;;;;;;;21.73;14.87;;;3.80;96.90;;;5.53;72.08;100837.16;3081673;46;21003;-66
2023/12/06 05:50:43;;;;;;;22.70;15.73;;;3.80;97.00;;;5.51;72.12;100836.47;3081681;46;20519;-65
2023/12/06 05:53:12;;;;;;;24.17;15.23;;;3.70;96.90;;;5.49;72.36;100840.03;3080927;46;21193;-65
2023/12/06 05:55:41;;;;;;;24.07;15.93;;;3.70;97.00;;;5.49;72.43;100842.66;3081147;46;20432;-66
2023/12/06 05:58:10;;;;;;;22.50;15.33;;;3.70;97.30;;;5.51;72.60;100842.53;3081608;46;20451;-66
2023/12/06 06:00:39;;;;;;;27.37;18.20;;;3.70;97.40;;;5.54;72.70;100844.03;3081220;46;20434;-66
2023/12/06 06:03:07;;;;;;;28.97;17.10;;;3.70;97.50;;;5.52;72.42;100851.16;3080914;46;20454;-65
2023/12/06 06:05:36;;;;;;;26.60;17.77;;;3.70;97.30;;;5.52;72.57;100851.16;3080806;46;20515;-67
2023/12/06 06:08:05;;;;;;;29.50;18.70;;;3.70;97.30;;;5.52;72.57;100851.16;3081288;46;20427;-64
2023/12/06 06:10:33;;;;;;;27.27;17.40;;;3.70;97.20;;;5.51;72.77;100852.13;3081762;46;21142;-65
2023/12/06 06:13:01;;;;;;;27.93;18.50;;;3.70;97.20;;;5.49;72.41;100855.69;3080775;46;21090;-65
2023/12/06 06:15:30;;;;;;;35.60;21.87;;;3.70;97.20;;;5.52;73.05;100859.00;3080767;46;21083;-67
2023/12/06 06:17:58;;;;;;;29.77;20.17;;;3.70;97.50;;;5.54;72.95;100857.09;3081153;46;20442;-66
2023/12/06 06:20:27;;;;;;;31.00;19.70;;;3.70;97.60;;;5.58;73.08;100858.44;3081347;46;20571;-66
2023/12/06 06:22:55;;;;;;;32.10;19.93;;;3.70;97.90;;;5.63;73.24;100864.06;3080940;46;20426;-66
2023/12/06 06:25:24;;;;;;;28.70;18.87;;;3.80;97.70;;;5.65;73.08;100869.97;3080526;46;20543;-67
2023/12/06 06:27:52;;;;;;;28.73;18.97;;;3.80;97.60;;;5.68;72.99;100861.88;3081047;46;20552;-66
2023/12/06 06:30:21;;;;;;;31.50;19.23;;;3.80;97.60;;;5.66;72.45;100867.22;3081200;46;21044;-66
2023/12/06 06:32:49;;;;;;;28.60;19.80;;;3.80;97.30;;;5.64;72.50;100863.09;3080614;46;20583;-66
2023/12/06 06:35:18;;;;;;;30.37;19.80;;;3.80;97.30;;;5.64;72.39;100868.31;3080466;46;20462;-66
2023/12/06 06:37:46;;;;;;;33.40;20.80;;;3.80;97.30;;;5.63;72.63;100867.53;3081472;46;20447;-66
2023/12/06 06:40:15;;;;;;;27.90;18.23;;;3.80;97.30;;;5.61;72.36;100871.22;3080962;46;20427;-65
2023/12/06 06:42:45;;;;;;;32.67;19.50;;;3.80;97.40;;;5.60;72.62;100872.19;3079350;46;20438;-66
2023/12/06 06:45:14;;;;;;;30.07;20.37;;;3.80;97.40;;;5.60;72.33;100867.78;3080312;46;20527;-66
2023/12/06 06:47:42;;;;;;;34.83;21.20;;;3.80;97.20;;;5.59;72.23;100873.97;3080892;46;20448;-64
2023/12/06 06:50:12;;;;;;;34.80;21.87;;;3.80;97.30;;;5.61;72.48;100879.84;3080902;46;20441;-66
2023/12/06 06:52:41;;;;;;;35.27;21.23;;;3.80;97.40;;;5.61;72.81;100882.47;3080590;46;21052;-66
2023/12/06 06:55:09;;;;;;;33.40;21.17;;;3.80;97.50;;;5.64;72.73;100878.75;3080469;46;20553;-66
2023/12/06 06:57:38;;;;;;;37.83;23.40;;;3.80;97.60;;;5.67;72.86;100881.09;3080978;46;20431;-66
2023/12/06 07:00:07;;;;;;;36.47;22.37;;;3.80;97.60;;;5.70;72.77;100888.66;3080806;46;20429;-66
2023/12/06 07:02:35;;;;;;;34.00;21.70;;;3.90;97.60;;;5.71;72.64;100885.06;3080464;46;20561;-65
2023/12/06 07:05:06;;;;;;;35.77;21.73;;;3.90;97.50;;;5.71;72.29;100890.28;3079630;46;21350;-66
2023/12/06 07:07:35;;;;;;;35.97;21.33;;;3.90;97.40;;;5.68;72.45;100896.63;3080371;46;21044;-66
2023/12/06 07:10:04;;;;;;;33.77;20.63;;;3.90;97.30;;;5.66;72.07;100898.53;3080326;46;20578;-66
2023/12/06 07:12:33;;;;;;;32.93;21.40;;;3.80;96.90;;;5.63;72.33;100898.00;3079562;46;20458;-68
2023/12/06 07:15:01;;;;;;;35.20;20.90;;;3.80;96.90;;;5.62;72.46;100901.56;3079928;46;21022;-68
2023/12/06 07:17:30;;;;;;;35.33;21.40;;;3.80;97.30;;;5.62;72.42;100905.00;3080288;46;20573;-67
2023/12/06 07:19:58;;;;;;;35.03;22.30;;;3.80;97.20;;;5.61;71.85;100913.00;3080671;46;20439;-67
2023/12/06 07:22:27;;;;;;;34.53;22.07;;;3.80;96.90;;;5.58;72.15;100913.25;3079933;46;20502;-64
2023/12/06 07:24:56;;;;;;;34.63;22.03;;;3.80;97.00;;;5.59;72.55;100917.50;3079074;43;21193;-66
2023/12/06 07:27:24;;;;;;;33.27;20.97;;;3.80;97.20;;;5.60;72.33;100924.38;3078243;46;20447;-67
2023/12/06 07:29:53;;;;;;;35.13;21.63;;;3.80;97.30;;;5.60;72.59;100921.78;3078207;46;20453;-64
2023/12/06 07:32:21;;;;;;;36.13;22.87;;;3.80;97.40;;;5.61;72.52;100924.25;3077883;46;20484;-68
2023/12/06 07:34:50;;;;;;;37.23;22.77;;;3.80;97.30;;;5.58;72.13;100926.31;3079892;46;20470;-68
2023/12/06 07:37:22;;;;;;;40.33;23.40;;;3.80;97.10;;;5.58;72.45;100932.38;3078664;43;20443;-65
2023/12/06 07:39:52;;;;;;;36.60;23.20;;;3.80;97.20;;;5.58;72.34;100934.16;3080322;46;20570;-65
2023/12/06 07:42:20;;;;;;;38.07;23.20;;;3.80;97.30;;;5.59;72.25;100935.78;3079758;46;20430;-68
2023/12/06 07:44:49;;;;;;;34.10;21.90;;;3.80;97.30;;;5.55;71.98;100937.03;3082315;46;20469;-66
2023/12/06 07:47:18;;;;;;;34.70;21.33;;;3.70;97.00;;;5.53;72.36;100938.94;3081420;46;20648;-68
2023/12/06 07:49:46;;;;;;;38.03;24.50;;;3.80;97.30;;;5.56;72.72;100943.91;3082906;46;21130;-67
2023/12/06 07:52:15;;;;;;;34.00;22.07;;;3.80;97.30;;;5.57;72.62;100945.53;3081647;46;20456;-65
2023/12/06 07:54:45;;;;;;;36.40;22.97;;;3.80;97.40;;;5.60;72.42;100945.28;3082066;46;20449;-67
2023/12/06 07:57:14;;;;;;;38.10;25.10;;;3.80;97.30;;;5.59;72.19;100944.44;3082697;46;20433;-66
2023/12/06 07:59:47;;;;;;;42.93;26.97;;;3.70;97.10;;;5.57;72.08;100951.59;3082045;46;20548;-67
2023/12/06 08:02:15;;;;;;;40.23;24.80;;;3.70;97.10;;;5.57;72.06;100950.75;3081328;43;20476;-67
2023/12/06 08:04:44;;;;;;;40.80;25.10;;;3.80;97.20;;;5.58;72.21;100955.03;3081257;46;20489;-67
2023/12/06 08:07:12;;;;;;;38.37;23.63;;;3.70;97.10;;;5.56;72.14;100959.56;3082207;46;20506;-67
2023/12/06 08:09:41;;;;;;;38.93;23.73;;;3.80;96.90;;;5.51;71.71;100972.19;3082405;46;20530;-65
2023/12/06 08:12:13;;;;;;;39.67;25.03;;;3.70;96.50;;;5.44;71.70;100970.13;3081742;46;20438;-67
2023/12/06 08:14:43;;;;;;;39.80;22.37;;;3.70;96.50;;;5.43;71.73;100976.31;3079579;46;20491;-67
2023/12/06 08:17:14;;;;;;;41.63;25.17;;;3.70;96.80;;;5.42;71.88;100974.66;3079834;46;20453;-65
2023/12/06 08:19:42;;;;;;;43.43;23.83;;;3.60;96.60;;;5.39;71.64;100985.38;3078597;46;20516;-66
2023/12/06 08:22:11;;;;;;;34.73;22.53;;;3.60;96.70;;;5.40;71.97;100987.00;3080898;46;21011;-65
2023/12/06 08:24:39;;;;;;;41.53;25.00;;;3.60;97.00;;;5.43;72.43;100991.13;3079244;46;20629;-65
2023/12/06 08:27:08;;;;;;;40.00;24.50;;;3.60;97.20;;;5.45;72.12;100990.03;3079534;46;21151;-67
2023/12/06 08:29:36;;;;;;;38.87;23.43;;;3.60;97.20;;;5.45;72.21;100995.25;3081088;46;21007;-66
2023/12/06 08:32:05;;;;;;;38.83;22.73;;;3.60;97.10;;;5.48;72.13;100989.78;3081710;46;20431;-66
2023/12/06 08:34:51;;;;;;;40.30;24.87;;;3.60;97.30;;;5.52;72.13;100997.31;3079925;46;20465;-68
2023/12/06 08:37:26;;;;;;;35.87;22.80;;;3.60;97.60;;;5.55;72.26;100999.66;3079282;46;20481;-66
2023/12/06 08:39:55;;;;;;;42.77;24.40;;;3.60;97.50;;;5.55;71.93;100999.66;3079173;46;20461;-67
2023/12/06 08:42:23;;;;;;;39.23;24.77;;;3.60;96.90;;;5.52;71.50;101005.16;3077838;46;20457;-67
2023/12/06 08:44:56;;;;;;;37.40;23.50;;;3.60;96.90;;;5.53;72.13;101007.66;3076477;44;20588;-68
2023/12/06 08:47:24;;;;;;;42.80;27.23;;;3.60;97.20;;;5.55;71.96;101005.72;3077830;46;20447;-66
2023/12/06 08:49:53;;;;;;;35.53;23.77;;;3.60;97.10;;;5.54;71.32;101005.88;3078621;46;20450;-68
2023/12/06 08:52:22;;;;;;;57.83;34.73;;;3.70;96.70;;;5.53;71.41;101009.41;3078818;46;20450;-66
2023/12/06 08:54:50;;;;;;;42.60;27.10;;;3.60;96.70;;;5.53;71.28;101006.81;3079154;46;20539;-68
2023/12/06 08:57:19;;;;;;;40.67;24.67;;;3.60;96.80;;;5.53;71.71;101004.19;3080265;46;20423;-67
2023/12/06 08:59:51;;;;;;;37.27;24.73;;;3.60;96.90;;;5.54;71.42;101008.47;3080872;46;20530;-68
2023/12/06 09:02:20;;;;;;;41.53;26.20;;;3.60;96.80;;;5.52;71.31;101010.38;3080817;46;20435;-66
2023/12/06 09:04:50;;;;;;;46.60;28.87;;;3.60;96.80;;;5.53;71.65;101012.03;3080590;46;20470;-66
2023/12/06 09:07:18;;;;;;;47.20;28.10;;;3.60;97.00;;;5.55;71.75;101008.34;3081141;46;20517;-65
2023/12/06 09:09:47;;;;;;;40.20;25.57;;;3.60;97.20;;;5.57;71.80;101010.78;3081278;46;20428;-66
2023/12/06 09:12:15;;;;;;;40.50;27.07;;;3.70;97.20;;;5.59;71.68;101016.69;3081250;46;20557;-65
2023/12/06 09:14:44;;;;;;;44.03;25.27;;;3.60;97.10;;;5.61;71.62;101020.03;3080461;46;20491;-67
2023/12/06 09:17:12;;;;;;;44.13;27.53;;;3.70;97.10;;;5.64;71.62;101019.72;3080065;46;21003;-65
2023/12/06 09:19:41;;;;;;;39.03;24.87;;;3.70;97.30;;;5.67;71.61;101020.31;3079166;46;21117;-64
2023/12/06 09:22:09;;;;;;;40.60;26.47;;;3.70;97.00;;;5.66;71.11;101017.84;3081274;46;20439;-65
2023/12/06 09:24:39;;;;;;;40.83;24.80;;;3.70;96.80;;;5.68;71.35;101026.34;3081066;46;20441;-67
2023/12/06 09:27:07;;;;;;;41.47;26.03;;;3.70;96.90;;;5.70;71.55;101033.09;3081811;46;20439;-66
2023/12/06 09:29:35;;;;;;;40.43;25.17;;;3.70;97.10;;;5.76;72.01;101029.09;3079971;46;20484;-67
2023/12/06 09:32:05;;;;;;;43.00;26.80;;;3.80;97.30;;;5.81;71.67;101032.13;3079275;46;20431;-66
2023/12/06 09:34:34;;;;;;;37.03;23.83;;;3.80;97.30;;;5.84;71.40;101035.34;3079968;46;20470;-68
2023/12/06 09:37:15;;;;;;;34.53;23.77;;;3.80;96.80;;;5.82;70.80;101041.63;3080440;43;20423;-67
2023/12/06 09:39:44;;;;;;;41.40;26.17;;;3.80;96.50;;;5.80;70.94;101040.94;3079857;46;20451;-64
2023/12/06 09:42:12;;;;;;;43.53;27.60;;;3.80;96.40;;;5.80;70.85;101054.78;3080166;46;20552;-67
2023/12/06 09:44:42;;;;;;;38.53;25.07;;;3.80;96.50;;;5.79;70.83;101049.72;3078880;46;20521;-66
2023/12/06 09:47:12;;;;;;;38.30;24.90;;;3.80;96.60;;;5.81;70.77;101064.28;3080869;46;20430;-68
2023/12/06 09:49:40;;;;;;;38.70;25.13;;;3.80;96.50;;;5.77;70.13;101057.69;3077599;43;20519;-66
2023/12/06 09:52:23;;;;;;;35.13;24.07;;;3.80;96.30;;;5.72;70.37;101056.44;3080122;46;21200;-67
2023/12/06 09:54:53;;;;;;;38.17;25.93;;;3.80;96.10;;;5.72;70.72;101054.66;3076415;46;20552;-66
2023/12/06 09:57:21;;;;;;;38.37;25.47;;;3.80;96.40;;;5.72;70.96;101062.50;3076160;46;20519;-67
2023/12/06 09:59:53;;;;;;;37.27;24.43;;;3.80;96.30;;;5.71;70.85;101067.84;3076558;46;20482;-64
2023/12/06 10:02:21;;;;;;;42.27;25.50;;;3.80;96.30;;;5.69;70.49;101059.31;3075864;43;20438;-69
2023/12/06 10:04:51;;;;;;;39.53;25.63;;;3.80;96.30;;;5.67;70.70;101056.84;3077439;46;20554;-66
2023/12/06 10:07:20;;;;;;;43.93;26.13;;;3.70;96.40;;;5.72;71.01;101064.28;3076388;46;20469;-67
2023/12/06 10:09:52;;;;;;;41.07;26.77;;;3.80;96.70;;;5.72;70.69;101059.06;3077957;46;20457;-67
2023/12/06 10:12:21;;;;;;;41.83;26.60;;;3.80;96.60;;;5.74;71.01;101059.75;3078453;46;21247;-69
2023/12/06 10:14:59;;;;;;;42.17;27.17;;;3.80;97.00;;;5.76;71.06;101063.88;3077389;46;20474;-66
2023/12/06 10:17:27;;;;;;;43.40;27.63;;;3.80;96.90;;;5.80;70.94;101067.84;3080811;46;20661;-65
2023/12/06 10:19:56;;;;;;;43.93;28.70;;;3.80;96.80;;;5.83;70.88;101064.16;3080323;46;20516;-67